Wyoming, Delaware
Current Conditions -  °F | °C
As of 7:58 PM on Friday 19 Dec 2014 (Local Time) from KDOV Reporting Station
Clear Clear  
Wind Chill: 29°   Ceiling: Unl
Heat Index: 33°   Visibility: 10mi
Dew Point: 24°   Wind: 5mph
Humidity: 69%   Direction: 280°W
Pressure: 30.16"   Gusts: NA
Location:  39.0852°N, 75.6325°W
Report Text: KDOV 200058Z AUTO 28004KT 10SM CLR 01/M04 A3016 RMK AO2 SLP217 T00051045
Loading
Personal Weather Stations






























Interactive Weather Map New forecast layout! Learn more

10-Day Weather Forecast

Advertisements
Track Severe Weather on mobile